createdAt,value
2023-03-28T00:00:36.405Z,566.0000
2023-03-28T00:01:38.734Z,563.0000
2023-03-28T00:02:38.954Z,561.0000
2023-03-28T00:04:40.403Z,553.0000
2023-03-28T00:05:41.678Z,550.0000
2023-03-28T00:06:43.934Z,552.0000
2023-03-28T00:07:46.283Z,550.0000
2023-03-28T00:08:46.422Z,555.0000
2023-03-28T00:09:48.846Z,556.0000
2023-03-28T00:10:51.058Z,554.0000
2023-03-28T00:11:53.382Z,554.0000
2023-03-28T00:12:55.681Z,555.0000
2023-03-28T00:13:58.336Z,558.0000
2023-03-28T00:14:58.232Z,560.0000
2023-03-28T00:16:00.671Z,557.0000
2023-03-28T00:17:02.743Z,554.0000
2023-03-28T00:18:05.024Z,557.0000
2023-03-28T00:19:07.307Z,554.0000
2023-03-28T00:20:09.712Z,553.0000
2023-03-28T00:21:11.942Z,554.0000
2023-03-28T00:22:12.127Z,553.0000
2023-03-28T00:23:14.485Z,557.0000
2023-03-28T00:24:16.837Z,559.0000
2023-03-28T00:25:19.293Z,560.0000
2023-03-28T00:26:21.558Z,560.0000
2023-03-28T00:27:21.776Z,559.0000
2023-03-28T00:28:24.156Z,556.0000
2023-03-28T00:29:26.529Z,559.0000
2023-03-28T00:30:28.936Z,556.0000
2023-03-28T00:31:29.148Z,551.0000
2023-03-28T00:32:31.458Z,552.0000
2023-03-28T00:33:33.784Z,554.0000
2023-03-28T00:34:36.127Z,554.0000
2023-03-28T00:35:38.524Z,554.0000
2023-03-28T00:36:38.697Z,554.0000
2023-03-28T00:37:40.996Z,554.0000
2023-03-28T00:38:43.357Z,553.0000
2023-03-28T00:39:45.664Z,551.0000
2023-03-28T00:40:48.146Z,548.0000
2023-03-28T00:41:48.218Z,551.0000
2023-03-28T00:42:50.572Z,551.0000
2023-03-28T00:43:52.882Z,556.0000
2023-03-28T00:44:55.218Z,558.0000
2023-03-28T00:46:08.660Z,559.0000
2023-03-28T00:46:57.703Z,559.0000
2023-03-28T00:47:59.942Z,559.0000
2023-03-28T00:49:02.219Z,555.0000
2023-03-28T00:50:04.528Z,554.0000
2023-03-28T00:51:06.892Z,554.0000
2023-03-28T00:52:09.167Z,549.0000
2023-03-28T00:53:11.497Z,551.0000
2023-03-28T00:54:11.696Z,552.0000
2023-03-28T00:55:13.955Z,551.0000
2023-03-28T00:56:16.330Z,549.0000
2023-03-28T00:57:18.594Z,549.0000
2023-03-28T00:58:20.812Z,549.0000
2023-03-28T00:59:23.096Z,547.0000
2023-03-28T01:00:25.445Z,552.0000
2023-03-28T01:01:25.688Z,550.0000
2023-03-28T01:02:28.168Z,546.0000
2023-03-28T01:03:30.579Z,545.0000
2023-03-28T01:04:32.560Z,541.0000
2023-03-28T01:05:34.884Z,544.0000
2023-03-28T01:06:35.166Z,543.0000
2023-03-28T01:07:37.368Z,542.0000
2023-03-28T01:08:39.682Z,543.0000
2023-03-28T01:09:42.064Z,543.0000
2023-03-28T01:10:44.275Z,543.0000
2023-03-28T01:11:46.704Z,542.0000
2023-03-28T01:12:48.874Z,545.0000
2023-03-28T01:13:49.036Z,542.0000
2023-03-28T01:14:51.325Z,545.0000
2023-03-28T01:15:53.631Z,541.0000
2023-03-28T01:16:55.975Z,540.0000
2023-03-28T01:17:58.166Z,543.0000
2023-03-28T01:19:00.374Z,543.0000
2023-03-28T01:20:02.610Z,540.0000
2023-03-28T01:21:02.676Z,541.0000
2023-03-28T01:22:05.055Z,541.0000
2023-03-28T01:23:07.153Z,543.0000
2023-03-28T01:24:11.320Z,545.0000
2023-03-28T01:25:11.707Z,545.0000
2023-03-28T01:26:13.973Z,544.0000
2023-03-28T01:27:16.279Z,545.0000
2023-03-28T01:28:18.541Z,548.0000
2023-03-28T01:29:20.832Z,549.0000
2023-03-28T01:30:20.977Z,547.0000
2023-03-28T01:31:23.282Z,543.0000
2023-03-28T01:32:25.652Z,546.0000
2023-03-28T01:33:27.895Z,543.0000
2023-03-28T01:34:30.205Z,548.0000
2023-03-28T01:35:32.573Z,549.0000
2023-03-28T01:36:35.283Z,547.0000
2023-03-28T01:37:34.897Z,545.0000
2023-03-28T01:38:37.158Z,543.0000
2023-03-28T01:39:39.445Z,542.0000
2023-03-28T01:40:41.719Z,542.0000
2023-03-28T01:41:43.904Z,542.0000
2023-03-28T01:42:46.188Z,542.0000
2023-03-28T01:43:48.427Z,546.0000
2023-03-28T01:45:38.226Z,543.0000
2023-03-28T01:46:40.300Z,539.0000
2023-03-28T01:47:42.579Z,541.0000
2023-03-28T01:48:44.845Z,538.0000
2023-03-28T01:49:47.114Z,534.0000
2023-03-28T01:50:49.416Z,541.0000
2023-03-28T01:51:51.719Z,539.0000
2023-03-28T01:52:54.025Z,539.0000
2023-03-28T01:53:54.298Z,537.0000
2023-03-28T01:54:56.504Z,535.0000
2023-03-28T01:55:59.152Z,535.0000
2023-03-28T01:57:01.269Z,538.0000
2023-03-28T01:58:03.416Z,541.0000
2023-03-28T01:59:05.700Z,541.0000
2023-03-28T02:00:07.143Z,542.0000
2023-03-28T02:01:09.086Z,538.0000
2023-03-28T02:02:11.327Z,539.0000
2023-03-28T02:03:13.752Z,539.0000
2023-03-28T02:04:20.498Z,540.0000
2023-03-28T02:05:18.115Z,540.0000
2023-03-28T02:06:20.399Z,537.0000
2023-03-28T02:07:22.676Z,540.0000
2023-03-28T02:08:22.861Z,538.0000
2023-03-28T02:09:25.262Z,540.0000
2023-03-28T02:10:27.464Z,538.0000
2023-03-28T02:11:29.819Z,538.0000
2023-03-28T02:12:32.162Z,539.0000
2023-03-28T02:13:34.475Z,542.0000
2023-03-28T02:14:36.812Z,543.0000
2023-03-28T02:15:39.078Z,547.0000
2023-03-28T02:16:41.481Z,546.0000
2023-03-28T02:17:43.731Z,547.0000
2023-03-28T02:18:46.035Z,549.0000
2023-03-28T02:19:48.340Z,549.0000
2023-03-28T02:20:50.560Z,548.0000
2023-03-28T02:21:50.669Z,546.0000
2023-03-28T02:22:52.977Z,544.0000
2023-03-28T02:23:55.248Z,542.0000
2023-03-28T02:24:57.571Z,541.0000
2023-03-28T02:25:57.921Z,541.0000
2023-03-28T02:27:00.047Z,544.0000
2023-03-28T02:28:02.312Z,545.0000
2023-03-28T02:29:04.613Z,548.0000
2023-03-28T02:30:07.012Z,544.0000
2023-03-28T02:31:09.237Z,544.0000
2023-03-28T02:32:11.518Z,542.0000
2023-03-28T02:33:13.817Z,543.0000
2023-03-28T02:34:16.136Z,543.0000
2023-03-28T02:35:18.632Z,546.0000
2023-03-28T02:36:20.813Z,544.0000
2023-03-28T02:37:23.104Z,542.0000
2023-03-28T02:38:25.432Z,542.0000
2023-03-28T02:39:27.785Z,544.0000
2023-03-28T02:40:30.122Z,545.0000
2023-03-28T02:41:32.396Z,544.0000
2023-03-28T02:42:34.708Z,545.0000
2023-03-28T02:43:37.007Z,546.0000
2023-03-28T02:44:39.308Z,545.0000
2023-03-28T02:45:41.779Z,543.0000
2023-03-28T02:46:43.918Z,544.0000
2023-03-28T02:47:46.313Z,544.0000
2023-03-28T02:48:46.448Z,544.0000
2023-03-28T02:49:50.785Z,544.0000
2023-03-28T02:50:51.061Z,543.0000
2023-03-28T02:51:53.356Z,548.0000
2023-03-28T02:52:55.686Z,545.0000
2023-03-28T02:53:58.012Z,546.0000
2023-03-28T02:54:58.199Z,547.0000
2023-03-28T02:56:00.882Z,552.0000
2023-03-28T02:57:02.799Z,552.0000
2023-03-28T02:58:05.081Z,555.0000
2023-03-28T02:59:05.233Z,552.0000
2023-03-28T03:00:07.569Z,557.0000
2023-03-28T03:01:10.005Z,557.0000
2023-03-28T03:02:12.232Z,553.0000
2023-03-28T03:03:14.591Z,551.0000
2023-03-28T03:04:16.861Z,549.0000
2023-03-28T03:05:19.134Z,553.0000
2023-03-28T03:06:21.509Z,553.0000
2023-03-28T03:07:23.712Z,554.0000
2023-03-28T03:08:26.019Z,553.0000
2023-03-28T03:09:28.337Z,552.0000
2023-03-28T03:10:30.696Z,553.0000
2023-03-28T03:11:33.158Z,550.0000
2023-03-28T03:12:35.380Z,548.0000
2023-03-28T03:13:37.737Z,547.0000
2023-03-28T03:14:40.049Z,546.0000
2023-03-28T03:15:42.411Z,549.0000
2023-03-28T03:16:44.780Z,549.0000
2023-03-28T03:17:44.922Z,553.0000
2023-03-28T03:18:47.300Z,556.0000
2023-03-28T03:19:49.671Z,559.0000
2023-03-28T03:20:49.875Z,559.0000
2023-03-28T03:21:52.264Z,561.0000
2023-03-28T03:22:54.465Z,563.0000
2023-03-28T03:23:56.743Z,568.0000
2023-03-28T03:24:56.929Z,568.0000
2023-03-28T03:25:59.451Z,570.0000
2023-03-28T03:27:01.708Z,571.0000
2023-03-28T03:29:27.908Z,571.0000
2023-03-28T03:30:30.106Z,572.0000
2023-03-28T03:31:30.321Z,570.0000
2023-03-28T03:32:32.701Z,569.0000
2023-03-28T03:33:34.936Z,575.0000
2023-03-28T03:34:37.242Z,579.0000
2023-03-28T03:35:39.553Z,583.0000
2023-03-28T03:36:41.823Z,584.0000
2023-03-28T03:37:44.223Z,585.0000
2023-03-28T03:38:44.229Z,586.0000
2023-03-28T03:39:46.554Z,586.0000
2023-03-28T03:40:48.852Z,590.0000
2023-03-28T03:41:51.166Z,590.0000
2023-03-28T03:42:53.499Z,590.0000
2023-03-28T03:43:55.824Z,590.0000
2023-03-28T03:44:56.022Z,589.0000
2023-03-28T03:45:58.452Z,588.0000
2023-03-28T03:47:00.644Z,591.0000
2023-03-28T03:48:03.137Z,590.0000
2023-03-28T03:49:05.296Z,595.0000
2023-03-28T03:50:05.522Z,597.0000
2023-03-28T03:51:07.859Z,597.0000
2023-03-28T03:52:10.218Z,599.0000
2023-03-28T03:53:12.587Z,599.0000
2023-03-28T03:54:14.956Z,602.0000
2023-03-28T03:55:15.147Z,599.0000
2023-03-28T03:56:17.555Z,598.0000
2023-03-28T03:57:20.020Z,600.0000
2023-03-28T03:58:22.421Z,605.0000
2023-03-28T03:59:24.647Z,606.0000
2023-03-28T04:00:24.883Z,606.0000
2023-03-28T04:01:27.217Z,610.0000
2023-03-28T04:02:29.684Z,613.0000
2023-03-28T04:03:31.939Z,617.0000
2023-03-28T04:04:34.475Z,617.0000
2023-03-28T04:05:36.594Z,622.0000
2023-03-28T04:06:38.941Z,620.0000
2023-03-28T04:07:41.285Z,621.0000
2023-03-28T04:08:43.744Z,621.0000
2023-03-28T04:09:43.826Z,623.0000
2023-03-28T04:10:47.305Z,620.0000
2023-03-28T04:11:48.444Z,621.0000
2023-03-28T04:12:50.770Z,621.0000
2023-03-28T04:13:53.183Z,623.0000
2023-03-28T04:14:53.279Z,621.0000
2023-03-28T04:15:55.760Z,624.0000
2023-03-28T04:16:57.983Z,630.0000
2023-03-28T04:18:03.467Z,629.0000
2023-03-28T04:19:02.733Z,634.0000
2023-03-28T04:20:02.895Z,632.0000
2023-03-28T04:21:05.268Z,636.0000
2023-03-28T04:22:07.624Z,637.0000
2023-03-28T04:23:09.933Z,637.0000
2023-03-28T04:24:12.296Z,642.0000
2023-03-28T04:25:14.482Z,641.0000
2023-03-28T04:26:14.617Z,639.0000
2023-03-28T04:27:16.991Z,642.0000
2023-03-28T04:28:19.346Z,643.0000
2023-03-28T04:29:21.809Z,642.0000
2023-03-28T04:30:24.051Z,642.0000
2023-03-28T04:31:24.293Z,646.0000
2023-03-28T04:32:26.562Z,648.0000
2023-03-28T04:33:28.896Z,651.0000
2023-03-28T04:34:31.249Z,652.0000
2023-03-28T04:35:33.537Z,658.0000
2023-03-28T04:36:35.800Z,658.0000
2023-03-28T04:37:35.986Z,655.0000
2023-03-28T04:38:38.248Z,659.0000
2023-03-28T04:39:40.608Z,661.0000
2023-03-28T04:40:42.874Z,664.0000
2023-03-28T04:41:45.258Z,662.0000
2023-03-28T04:42:47.533Z,667.0000
2023-03-28T04:43:47.667Z,671.0000
2023-03-28T04:44:50.035Z,669.0000
2023-03-28T04:45:52.298Z,675.0000
2023-03-28T04:46:54.612Z,678.0000
2023-03-28T04:47:56.977Z,678.0000
2023-03-28T04:48:57.231Z,678.0000
2023-03-28T04:49:59.567Z,681.0000
2023-03-28T04:51:01.811Z,683.0000
2023-03-28T04:52:04.115Z,687.0000
2023-03-28T04:53:06.456Z,693.0000
2023-03-28T04:54:08.804Z,696.0000
2023-03-28T04:55:09.003Z,699.0000
2023-03-28T04:56:11.353Z,697.0000
2023-03-28T04:57:13.719Z,697.0000
2023-03-28T04:58:16.058Z,701.0000
2023-03-28T04:59:18.403Z,707.0000
2023-03-28T05:00:18.695Z,714.0000
2023-03-28T05:01:20.969Z,709.0000
2023-03-28T05:02:23.401Z,713.0000
2023-03-28T05:03:25.735Z,717.0000
2023-03-28T05:04:27.975Z,712.0000
2023-03-28T05:05:28.143Z,702.0000
2023-03-28T05:06:30.414Z,695.0000
2023-03-28T05:07:32.643Z,699.0000
2023-03-28T05:08:34.914Z,697.0000
2023-03-28T05:09:37.166Z,695.0000
2023-03-28T05:10:39.593Z,694.0000
2023-03-28T05:11:41.796Z,691.0000
2023-03-28T05:12:41.973Z,688.0000
2023-03-28T05:13:44.279Z,688.0000
2023-03-28T05:14:46.627Z,685.0000
2023-03-28T05:15:49.020Z,683.0000
2023-03-28T05:16:51.309Z,682.0000
2023-03-28T05:19:19.773Z,700.0000
2023-03-28T05:20:21.985Z,700.0000
2023-03-28T05:21:24.317Z,692.0000
2023-03-28T05:22:24.462Z,698.0000
2023-03-28T05:23:28.951Z,699.0000
2023-03-28T05:24:24.862Z,699.0000
2023-03-28T05:25:27.155Z,695.0000
2023-03-28T05:26:29.638Z,696.0000
2023-03-28T05:27:29.721Z,701.0000
2023-03-28T05:28:32.074Z,703.0000
2023-03-28T05:29:26.825Z,703.0000
2023-03-28T05:30:28.104Z,704.0000
2023-03-28T05:31:28.294Z,704.0000
2023-03-28T05:32:30.742Z,705.0000
2023-03-28T05:33:32.943Z,704.0000
2023-03-28T05:34:35.246Z,702.0000
2023-03-28T05:35:37.624Z,706.0000
2023-03-28T05:36:37.734Z,708.0000
2023-03-28T05:37:42.613Z,708.0000
2023-03-28T05:38:42.323Z,711.0000
2023-03-28T05:39:44.688Z,711.0000
2023-03-28T05:40:47.047Z,715.0000
2023-03-28T05:41:49.381Z,717.0000
2023-03-28T05:42:51.825Z,720.0000
2023-03-28T05:43:51.844Z,725.0000
2023-03-28T05:44:54.146Z,726.0000
2023-03-28T05:45:56.561Z,723.0000
2023-03-28T05:46:58.749Z,723.0000
2023-03-28T05:48:01.170Z,724.0000
2023-03-28T05:49:03.344Z,724.0000
2023-03-28T05:50:03.513Z,725.0000
2023-03-28T05:51:05.801Z,725.0000
2023-03-28T05:52:08.103Z,722.0000
2023-03-28T05:53:10.521Z,721.0000
2023-03-28T05:54:12.669Z,723.0000
2023-03-28T05:55:14.909Z,724.0000
2023-03-28T05:56:17.167Z,723.0000
2023-03-28T05:57:19.544Z,719.0000
2023-03-28T05:58:19.695Z,724.0000
2023-03-28T05:59:21.886Z,724.0000
2023-03-28T06:00:24.167Z,725.0000
2023-03-28T06:01:26.520Z,725.0000
2023-03-28T06:02:28.921Z,722.0000
2023-03-28T06:03:31.380Z,719.0000
2023-03-28T06:04:33.610Z,718.0000
2023-03-28T06:05:35.983Z,718.0000
2023-03-28T06:06:38.312Z,719.0000
2023-03-28T06:07:42.853Z,715.0000
2023-03-28T06:08:40.869Z,710.0000
2023-03-28T06:09:43.094Z,706.0000
2023-03-28T06:10:45.376Z,707.0000
2023-03-28T06:11:47.661Z,708.0000
2023-03-28T06:12:49.998Z,707.0000
2023-03-28T06:13:52.393Z,705.0000
2023-03-28T06:14:52.570Z,707.0000
2023-03-28T06:15:54.889Z,706.0000
2023-03-28T06:16:57.281Z,699.0000
2023-03-28T06:17:59.700Z,697.0000
2023-03-28T06:19:14.505Z,697.0000
2023-03-28T06:20:02.249Z,694.0000
2023-03-28T06:21:04.532Z,693.0000
2023-03-28T06:22:06.840Z,693.0000
2023-03-28T06:23:09.127Z,694.0000
2023-03-28T06:24:11.561Z,691.0000
2023-03-28T06:25:11.649Z,692.0000
2023-03-28T06:26:13.926Z,689.0000
2023-03-28T06:27:16.176Z,692.0000
2023-03-28T06:28:18.440Z,691.0000
2023-03-28T06:29:20.801Z,689.0000
2023-03-28T06:30:22.968Z,688.0000
2023-03-28T06:31:25.246Z,687.0000
2023-03-28T06:32:27.511Z,683.0000
2023-03-28T06:33:27.601Z,685.0000
2023-03-28T06:34:29.976Z,683.0000
2023-03-28T06:35:32.124Z,681.0000
2023-03-28T06:36:34.307Z,683.0000
2023-03-28T06:37:36.529Z,682.0000
2023-03-28T06:38:38.741Z,681.0000
2023-03-28T06:39:40.962Z,675.0000
2023-03-28T06:40:43.172Z,677.0000
2023-03-28T06:41:45.421Z,676.0000
2023-03-28T06:42:47.605Z,674.0000
2023-03-28T06:43:49.843Z,671.0000
2023-03-28T06:44:49.991Z,669.0000
2023-03-28T06:45:52.336Z,672.0000
2023-03-28T06:46:54.648Z,673.0000
2023-03-28T06:47:56.993Z,672.0000
2023-03-28T06:48:59.258Z,670.0000
2023-03-28T06:50:01.652Z,667.0000
2023-03-28T06:51:03.775Z,667.0000
2023-03-28T06:52:03.917Z,665.0000
2023-03-28T06:53:06.111Z,665.0000
2023-03-28T06:54:08.397Z,662.0000
2023-03-28T06:55:10.798Z,657.0000
2023-03-28T06:56:12.996Z,654.0000
2023-03-28T06:57:15.324Z,656.0000
2023-03-28T06:58:17.608Z,653.0000
2023-03-28T06:59:17.764Z,653.0000
2023-03-28T07:00:20.158Z,654.0000
2023-03-28T07:01:22.426Z,649.0000
2023-03-28T07:02:24.781Z,648.0000
2023-03-28T07:03:27.211Z,646.0000
2023-03-28T07:04:29.229Z,645.0000
2023-03-28T07:05:31.565Z,646.0000
2023-03-28T07:06:33.808Z,648.0000
2023-03-28T07:07:36.180Z,643.0000
2023-03-28T07:08:38.481Z,641.0000
2023-03-28T07:09:40.783Z,645.0000
2023-03-28T07:10:43.350Z,646.0000
2023-03-28T07:11:45.442Z,647.0000
2023-03-28T07:12:47.804Z,650.0000
2023-03-28T07:13:50.165Z,647.0000
2023-03-28T07:14:52.469Z,647.0000
2023-03-28T07:15:54.833Z,648.0000
2023-03-28T07:16:55.024Z,645.0000
2023-03-28T07:17:57.358Z,642.0000
2023-03-28T07:18:59.611Z,642.0000
2023-03-28T07:20:01.966Z,640.0000
2023-03-28T07:21:04.699Z,638.0000
2023-03-28T07:22:04.421Z,637.0000
2023-03-28T07:23:06.789Z,638.0000
2023-03-28T07:24:09.165Z,636.0000
2023-03-28T07:25:11.484Z,633.0000
2023-03-28T07:26:13.890Z,629.0000
2023-03-28T07:27:16.635Z,631.0000
2023-03-28T07:28:16.386Z,630.0000
2023-03-28T07:29:18.778Z,633.0000
2023-03-28T07:30:21.104Z,631.0000
2023-03-28T07:31:23.459Z,632.0000
2023-03-28T07:33:34.220Z,618.0000
2023-03-28T07:34:30.470Z,616.0000
2023-03-28T07:35:32.845Z,617.0000
2023-03-28T07:36:35.224Z,618.0000
2023-03-28T07:37:37.478Z,618.0000
2023-03-28T07:38:37.726Z,620.0000
2023-03-28T07:39:39.988Z,620.0000
2023-03-28T07:40:42.265Z,622.0000
2023-03-28T07:41:44.644Z,623.0000
2023-03-28T07:42:46.890Z,622.0000
2023-03-28T07:43:49.199Z,621.0000
2023-03-28T07:44:51.527Z,623.0000
2023-03-28T07:45:52.773Z,620.0000
2023-03-28T07:46:55.027Z,617.0000
2023-03-28T07:47:55.193Z,617.0000
2023-03-28T07:48:57.443Z,612.0000
2023-03-28T07:49:59.677Z,609.0000
2023-03-28T07:51:02.007Z,611.0000
2023-03-28T07:52:02.116Z,611.0000
2023-03-28T07:53:04.345Z,611.0000
2023-03-28T07:54:06.669Z,610.0000
2023-03-28T07:55:08.972Z,607.0000
2023-03-28T07:56:11.251Z,603.0000
2023-03-28T07:57:13.678Z,601.0000
2023-03-28T07:58:15.835Z,598.0000
2023-03-28T07:59:16.010Z,601.0000
2023-03-28T08:00:18.309Z,601.0000
2023-03-28T08:01:20.614Z,601.0000
2023-03-28T08:02:23.025Z,603.0000
2023-03-28T08:03:25.277Z,600.0000
2023-03-28T08:04:27.518Z,599.0000
2023-03-28T08:05:29.879Z,600.0000
2023-03-28T08:06:32.774Z,595.0000
2023-03-28T08:07:34.457Z,597.0000
2023-03-28T08:08:36.632Z,601.0000
2023-03-28T08:09:36.844Z,596.0000
2023-03-28T08:10:39.115Z,597.0000
2023-03-28T08:11:41.368Z,598.0000
2023-03-28T08:12:43.784Z,596.0000
2023-03-28T08:13:43.796Z,597.0000
2023-03-28T08:14:46.037Z,599.0000
2023-03-28T08:15:48.363Z,601.0000
2023-03-28T08:16:50.662Z,595.0000
2023-03-28T08:17:53.192Z,596.0000
2023-03-28T08:19:09.452Z,588.0000
2023-03-28T08:19:57.811Z,591.0000
2023-03-28T08:21:00.254Z,592.0000
2023-03-28T08:22:02.531Z,592.0000
2023-03-28T08:23:02.725Z,590.0000
2023-03-28T08:24:04.984Z,588.0000
2023-03-28T08:25:07.337Z,591.0000
2023-03-28T08:26:07.546Z,588.0000
2023-03-28T08:27:09.932Z,586.0000
2023-03-28T08:28:12.420Z,589.0000
2023-03-28T08:29:12.537Z,586.0000
2023-03-28T08:30:14.935Z,588.0000
2023-03-28T08:31:17.370Z,589.0000
2023-03-28T08:32:17.464Z,591.0000
2023-03-28T08:33:19.875Z,587.0000
2023-03-28T08:34:22.122Z,587.0000
2023-03-28T08:36:11.856Z,589.0000
2023-03-28T08:37:14.063Z,582.0000
2023-03-28T08:38:16.344Z,585.0000
2023-03-28T08:39:16.547Z,582.0000
2023-03-28T08:40:18.893Z,582.0000
2023-03-28T08:41:21.198Z,588.0000
2023-03-28T08:42:23.559Z,583.0000
2023-03-28T08:43:25.895Z,581.0000
2023-03-28T08:44:26.190Z,575.0000
2023-03-28T08:45:28.429Z,576.0000
2023-03-28T08:46:30.847Z,573.0000
2023-03-28T08:47:33.151Z,574.0000
2023-03-28T08:48:38.383Z,573.0000
2023-03-28T08:49:35.728Z,574.0000
2023-03-28T08:50:38.057Z,576.0000
2023-03-28T08:51:40.363Z,571.0000
2023-03-28T08:52:42.710Z,570.0000
2023-03-28T08:53:45.348Z,571.0000
2023-03-28T08:54:45.286Z,572.0000
2023-03-28T08:55:47.592Z,576.0000
2023-03-28T08:56:49.920Z,577.0000
2023-03-28T08:57:52.115Z,574.0000
2023-03-28T08:58:54.465Z,571.0000
2023-03-28T08:59:56.797Z,569.0000
2023-03-28T09:00:56.942Z,568.0000
2023-03-28T09:01:59.306Z,568.0000
2023-03-28T09:03:01.670Z,569.0000
2023-03-28T09:04:03.974Z,569.0000
2023-03-28T09:05:21.803Z,567.0000
2023-03-28T09:06:08.517Z,566.0000
2023-03-28T09:07:08.709Z,565.0000
2023-03-28T09:08:11.002Z,568.0000
2023-03-28T09:09:13.313Z,570.0000
2023-03-28T09:10:15.704Z,571.0000
2023-03-28T09:11:18.070Z,568.0000
2023-03-28T09:12:18.386Z,567.0000
2023-03-28T09:13:20.548Z,566.0000
2023-03-28T09:14:22.892Z,566.0000
2023-03-28T09:15:25.336Z,563.0000
2023-03-28T09:16:27.549Z,564.0000
2023-03-28T09:17:27.710Z,565.0000
2023-03-28T09:18:29.982Z,565.0000
2023-03-28T09:19:44.710Z,563.0000
2023-03-28T09:20:34.734Z,561.0000
2023-03-28T09:21:36.922Z,562.0000
2023-03-28T09:22:39.181Z,562.0000
2023-03-28T09:23:41.460Z,565.0000
2023-03-28T09:24:41.573Z,564.0000
2023-03-28T09:25:43.924Z,564.0000
2023-03-28T09:26:46.264Z,563.0000
2023-03-28T09:27:48.601Z,564.0000
2023-03-28T09:28:51.210Z,565.0000
2023-03-28T09:29:53.229Z,560.0000
2023-03-28T09:30:53.469Z,562.0000
2023-03-28T09:31:55.865Z,561.0000
2023-03-28T09:32:58.201Z,559.0000
2023-03-28T09:34:00.535Z,558.0000
2023-03-28T09:35:02.836Z,556.0000
2023-03-28T09:36:03.075Z,556.0000
2023-03-28T09:37:05.304Z,554.0000
2023-03-28T09:38:07.603Z,550.0000
2023-03-28T09:39:09.850Z,552.0000
2023-03-28T09:40:12.211Z,553.0000
2023-03-28T09:41:14.482Z,555.0000
2023-03-28T09:42:16.769Z,554.0000
2023-03-28T09:43:16.926Z,557.0000
2023-03-28T09:44:19.266Z,556.0000
2023-03-28T09:45:21.652Z,556.0000
2023-03-28T09:46:24.126Z,552.0000
2023-03-28T09:47:24.214Z,551.0000
2023-03-28T09:48:26.547Z,545.0000
2023-03-28T09:49:28.737Z,549.0000
2023-03-28T09:50:31.087Z,549.0000
2023-03-28T09:51:33.472Z,550.0000
2023-03-28T09:52:35.701Z,550.0000
2023-03-28T09:53:35.900Z,547.0000
2023-03-28T09:54:38.231Z,545.0000
2023-03-28T09:55:40.549Z,540.0000
2023-03-28T09:56:43.114Z,545.0000
2023-03-28T09:57:45.394Z,542.0000
2023-03-28T09:58:45.577Z,542.0000
2023-03-28T09:59:47.955Z,544.0000
2023-03-28T10:00:50.319Z,544.0000
2023-03-28T10:01:52.785Z,543.0000
2023-03-28T10:02:55.066Z,542.0000
2023-03-28T10:03:55.201Z,541.0000
2023-03-28T10:04:57.650Z,536.0000
2023-03-28T10:05:59.984Z,533.0000
2023-03-28T10:07:00.326Z,534.0000
2023-03-28T10:08:02.623Z,533.0000
2023-03-28T10:09:05.041Z,535.0000
2023-03-28T10:10:07.421Z,537.0000
2023-03-28T10:11:09.818Z,536.0000
2023-03-28T10:12:10.089Z,538.0000
2023-03-28T10:13:12.497Z,539.0000
2023-03-28T10:14:14.847Z,538.0000
2023-03-28T10:15:17.250Z,538.0000
2023-03-28T10:16:17.503Z,544.0000
2023-03-28T10:17:19.907Z,543.0000
2023-03-28T10:18:22.186Z,539.0000
2023-03-28T10:19:24.584Z,540.0000
2023-03-28T10:20:26.939Z,541.0000
2023-03-28T10:21:27.160Z,537.0000
2023-03-28T10:22:29.553Z,535.0000
2023-03-28T10:23:31.819Z,533.0000
2023-03-28T10:24:34.143Z,534.0000
2023-03-28T10:25:34.328Z,532.0000
2023-03-28T10:26:36.679Z,533.0000
2023-03-28T10:27:39.127Z,529.0000
2023-03-28T10:28:41.374Z,528.0000
2023-03-28T10:29:43.685Z,528.0000
2023-03-28T10:30:43.887Z,528.0000
2023-03-28T10:31:46.393Z,528.0000
2023-03-28T10:32:48.683Z,534.0000
2023-03-28T10:33:50.882Z,534.0000
2023-03-28T10:34:53.233Z,533.0000
2023-03-28T10:35:53.463Z,532.0000
2023-03-28T10:36:55.773Z,536.0000
2023-03-28T10:37:58.202Z,539.0000
2023-03-28T10:39:00.505Z,542.0000
2023-03-28T10:40:02.951Z,544.0000
2023-03-28T10:41:03.509Z,546.0000
2023-03-28T10:42:05.432Z,549.0000
2023-03-28T10:43:07.840Z,553.0000
2023-03-28T10:44:10.231Z,554.0000
2023-03-28T10:45:12.516Z,554.0000
2023-03-28T10:46:12.727Z,552.0000
2023-03-28T10:47:15.046Z,552.0000
2023-03-28T10:48:17.499Z,554.0000
2023-03-28T10:49:19.773Z,551.0000
2023-03-28T10:50:22.109Z,552.0000
2023-03-28T10:51:22.329Z,552.0000
2023-03-28T10:52:24.626Z,552.0000
2023-03-28T10:53:27.155Z,552.0000
2023-03-28T10:54:29.266Z,555.0000
2023-03-28T10:55:31.586Z,556.0000
2023-03-28T10:56:33.921Z,558.0000
2023-03-28T10:57:34.068Z,560.0000
2023-03-28T10:58:36.482Z,565.0000
2023-03-28T10:59:38.673Z,568.0000
2023-03-28T11:00:40.914Z,571.0000
2023-03-28T11:01:43.242Z,572.0000
2023-03-28T11:02:45.591Z,576.0000
2023-03-28T11:03:45.945Z,576.0000
2023-03-28T11:04:48.015Z,576.0000
2023-03-28T11:06:05.831Z,582.0000
2023-03-28T11:06:52.572Z,578.0000
2023-03-28T11:07:54.822Z,579.0000
2023-03-28T11:08:57.193Z,576.0000
2023-03-28T11:09:57.255Z,579.0000
2023-03-28T11:10:59.717Z,580.0000
2023-03-28T11:12:01.856Z,577.0000
2023-03-28T11:14:06.453Z,572.0000
2023-03-28T11:15:08.748Z,572.0000
2023-03-28T11:16:10.995Z,574.0000
2023-03-28T11:17:11.135Z,581.0000
2023-03-28T11:18:13.484Z,584.0000
2023-03-28T11:19:15.802Z,587.0000
2023-03-28T11:20:17.986Z,582.0000
2023-03-28T11:21:20.273Z,582.0000
2023-03-28T11:22:22.548Z,582.0000
2023-03-28T11:23:24.836Z,580.0000
2023-03-28T11:24:25.057Z,581.0000
2023-03-28T11:25:27.252Z,576.0000
2023-03-28T11:26:29.550Z,580.0000
2023-03-28T11:27:31.833Z,583.0000
2023-03-28T11:28:34.116Z,581.0000
2023-03-28T11:29:43.229Z,580.0000
2023-03-28T11:30:36.571Z,586.0000
2023-03-28T11:31:38.835Z,585.0000
2023-03-28T11:32:41.150Z,583.0000
2023-03-28T11:33:43.393Z,580.0000
2023-03-28T11:34:45.665Z,585.0000
2023-03-28T11:35:48.022Z,586.0000
2023-03-28T11:36:50.185Z,587.0000
2023-03-28T11:37:50.322Z,587.0000
2023-03-28T11:38:52.596Z,584.0000
2023-03-28T11:39:54.892Z,587.0000
2023-03-28T11:40:57.138Z,592.0000
2023-03-28T11:41:59.393Z,588.0000
2023-03-28T11:43:01.666Z,586.0000
2023-03-28T11:44:03.959Z,586.0000
2023-03-28T11:45:06.355Z,588.0000
2023-03-28T11:46:06.392Z,589.0000
2023-03-28T11:47:08.566Z,586.0000
2023-03-28T11:48:10.816Z,583.0000
2023-03-28T11:49:13.084Z,581.0000
2023-03-28T11:50:15.409Z,579.0000
2023-03-28T11:51:17.504Z,574.0000
2023-03-28T11:52:19.755Z,575.0000
2023-03-28T11:53:22.036Z,576.0000
2023-03-28T11:54:24.322Z,577.0000
2023-03-28T11:55:24.559Z,572.0000
2023-03-28T11:56:26.703Z,573.0000
2023-03-28T11:57:28.978Z,578.0000
2023-03-28T11:58:31.258Z,581.0000
2023-03-28T11:59:33.536Z,581.0000
2023-03-28T12:00:36.033Z,583.0000
2023-03-28T12:01:38.224Z,582.0000
2023-03-28T12:02:40.473Z,581.0000
2023-03-28T12:03:40.710Z,581.0000
2023-03-28T12:04:42.917Z,582.0000
2023-03-28T12:05:45.269Z,583.0000
2023-03-28T12:06:59.659Z,584.0000
2023-03-28T12:07:47.691Z,586.0000
2023-03-28T12:08:49.937Z,588.0000
2023-03-28T12:09:52.190Z,591.0000
2023-03-28T12:10:54.609Z,589.0000
2023-03-28T12:11:56.838Z,590.0000
2023-03-28T12:12:59.150Z,591.0000
2023-03-28T12:14:11.601Z,590.0000
2023-03-28T12:15:01.705Z,592.0000